SWA323 KBNA-KLGA
Flight info
| Callsign | SWA323 |
|---|---|
| Flight time | N/A |
| Altitude | 37000 |
| Route | CHADM4 MUNNY TONIO Q34 GVE PROUD2 |
| Aircraft | B738/M-SDE2E3FGHIRWXY/LB1 |
Departure
| Time | N/A |
|---|---|
| Airport | Nashville International Airport (KBNA) |
Arrival
| Time | 2026-05-08 03:14 |
|---|---|
| Airport | LaGuardia Airport (KLGA) |
| Time | Latitude | Longitude | Altitude | Speed | Heading |
|---|---|---|---|---|---|
| 2026-05-08 02:42 | 38.39300 | -76.31419 | 34922 ft | 484 kts | 24° |
| 2026-05-08 02:42 | 38.42003 | -76.28855 | 34528 ft | 483 kts | 24° |
| 2026-05-08 02:42 | 38.44683 | -76.26276 | 34143 ft | 481 kts | 24° |
| 2026-05-08 02:42 | 38.47338 | -76.23689 | 33724 ft | 479 kts | 24° |
| 2026-05-08 02:43 | 38.49973 | -76.21102 | 33331 ft | 476 kts | 25° |
| 2026-05-08 02:43 | 38.52598 | -76.18519 | 32938 ft | 473 kts | 25° |
| 2026-05-08 02:43 | 38.55164 | -76.15995 | 32623 ft | 470 kts | 25° |
| 2026-05-08 02:43 | 38.57754 | -76.13448 | 32192 ft | 467 kts | 25° |
| 2026-05-08 02:44 | 38.60328 | -76.10918 | 31808 ft | 464 kts | 25° |
| 2026-05-08 02:44 | 38.62885 | -76.08403 | 31469 ft | 460 kts | 25° |
| 2026-05-08 02:44 | 38.65441 | -76.05949 | 31108 ft | 456 kts | 24° |
| 2026-05-08 02:44 | 38.67961 | -76.03590 | 30765 ft | 452 kts | 24° |
| 2026-05-08 02:45 | 38.70509 | -76.01228 | 30426 ft | 449 kts | 24° |
| 2026-05-08 02:45 | 38.73038 | -75.98886 | 30086 ft | 446 kts | 24° |
| 2026-05-08 02:45 | 38.75551 | -75.96553 | 29697 ft | 446 kts | 24° |
| 2026-05-08 02:45 | 38.78060 | -75.94215 | 29289 ft | 443 kts | 25° |
| 2026-05-08 02:46 | 38.80511 | -75.91923 | 28898 ft | 439 kts | 25° |
| 2026-05-08 02:46 | 38.82973 | -75.89614 | 28521 ft | 436 kts | 25° |
| 2026-05-08 02:46 | 38.85422 | -75.87317 | 28159 ft | 432 kts | 25° |
| 2026-05-08 02:46 | 38.87806 | -75.85079 | 27820 ft | 428 kts | 25° |
| 2026-05-08 02:47 | 38.90202 | -75.82831 | 27468 ft | 426 kts | 25° |
| 2026-05-08 02:47 | 38.92594 | -75.80584 | 27124 ft | 424 kts | 25° |
| 2026-05-08 02:47 | 38.94979 | -75.78340 | 26824 ft | 423 kts | 26° |
| 2026-05-08 02:47 | 38.97361 | -75.76096 | 26581 ft | 425 kts | 26° |
| 2026-05-08 02:48 | 38.99726 | -75.73865 | 26347 ft | 428 kts | 26° |
| 2026-05-08 02:48 | 39.02188 | -75.71548 | 26116 ft | 447 kts | 27° |
| 2026-05-08 02:48 | 39.04771 | -75.69122 | 25916 ft | 465 kts | 27° |
| 2026-05-08 02:48 | 39.07377 | -75.66656 | 25547 ft | 471 kts | 28° |
| 2026-05-08 02:49 | 39.10001 | -75.64149 | 25278 ft | 466 kts | 28° |
| 2026-05-08 02:49 | 39.12557 | -75.61701 | 25005 ft | 460 kts | 28° |
| 2026-05-08 02:49 | 39.15161 | -75.59216 | 24767 ft | 458 kts | 28° |
| 2026-05-08 02:49 | 39.17733 | -75.56770 | 24501 ft | 458 kts | 28° |
| 2026-05-08 02:50 | 39.20272 | -75.54355 | 24230 ft | 458 kts | 28° |
| 2026-05-08 02:50 | 39.22835 | -75.51915 | 23974 ft | 457 kts | 28° |
| 2026-05-08 02:50 | 39.25420 | -75.49506 | 23559 ft | 457 kts | 27° |
| 2026-05-08 02:50 | 39.28006 | -75.47205 | 23112 ft | 451 kts | 26° |
| 2026-05-08 02:51 | 39.30594 | -75.44941 | 22676 ft | 445 kts | 26° |
| 2026-05-08 02:51 | 39.33145 | -75.42710 | 22269 ft | 440 kts | 26° |
| 2026-05-08 02:51 | 39.35664 | -75.40494 | 21894 ft | 435 kts | 27° |
| 2026-05-08 02:51 | 39.38130 | -75.38314 | 21498 ft | 431 kts | 27° |
| 2026-05-08 02:52 | 39.40589 | -75.36130 | 21115 ft | 427 kts | 27° |
| 2026-05-08 02:52 | 39.43025 | -75.33962 | 20746 ft | 424 kts | 27° |
| 2026-05-08 02:52 | 39.45456 | -75.31798 | 20379 ft | 425 kts | 27° |
| 2026-05-08 02:52 | 39.47898 | -75.29622 | 20012 ft | 427 kts | 27° |
| 2026-05-08 02:53 | 39.48993 | -75.28645 | 19833 ft | 426 kts | 28° |
| 2026-05-08 02:53 | 39.49848 | -75.27881 | 19708 ft | 425 kts | 28° |
| 2026-05-08 02:53 | 39.50728 | -75.27094 | 19572 ft | 424 kts | 28° |
| 2026-05-08 02:53 | 39.50961 | -75.26884 | 19535 ft | 424 kts | 28° |
| 2026-05-08 02:54 | 39.53045 | -75.24969 | 19243 ft | 423 kts | 29° |
| 2026-05-08 02:54 | 39.55406 | -75.22754 | 18849 ft | 423 kts | 30° |
| 2026-05-08 02:54 | 39.57784 | -75.20508 | 18476 ft | 421 kts | 30° |
| 2026-05-08 02:54 | 39.60155 | -75.18269 | 18093 ft | 420 kts | 30° |
| 2026-05-08 02:55 | 39.62509 | -75.16052 | 17735 ft | 416 kts | 30° |
| 2026-05-08 02:55 | 39.67153 | -75.11688 | 17022 ft | 408 kts | 30° |
| 2026-05-08 02:55 | 39.69464 | -75.09574 | 16647 ft | 404 kts | 28° |
| 2026-05-08 02:56 | 39.71797 | -75.07567 | 16281 ft | 400 kts | 27° |
| 2026-05-08 02:56 | 39.74097 | -75.05625 | 15902 ft | 398 kts | 27° |
| 2026-05-08 02:56 | 39.76418 | -75.03661 | 15545 ft | 395 kts | 27° |
| 2026-05-08 02:56 | 39.78715 | -75.01700 | 15183 ft | 393 kts | 27° |
| 2026-05-08 02:57 | 39.80989 | -74.99745 | 14833 ft | 391 kts | 28° |
| 2026-05-08 02:57 | 39.83253 | -74.97791 | 14479 ft | 390 kts | 28° |
| 2026-05-08 02:57 | 39.85509 | -74.95834 | 14126 ft | 389 kts | 28° |
| 2026-05-08 02:57 | 39.87709 | -74.93855 | 13774 ft | 388 kts | 30° |
| 2026-05-08 02:58 | 39.89926 | -74.91832 | 13378 ft | 384 kts | 30° |
| 2026-05-08 02:58 | 39.92101 | -74.89826 | 13026 ft | 379 kts | 32° |
| 2026-05-08 02:58 | 39.94024 | -74.87486 | 12692 ft | 377 kts | 43° |
| 2026-05-08 02:58 | 39.95723 | -74.84956 | 12381 ft | 371 kts | 45° |
| 2026-05-08 02:59 | 39.97397 | -74.82432 | 12073 ft | 364 kts | 45° |
| 2026-05-08 02:59 | 39.99060 | -74.79977 | 11780 ft | 356 kts | 44° |
| 2026-05-08 02:59 | 40.00707 | -74.77601 | 11494 ft | 350 kts | 43° |
| 2026-05-08 02:59 | 40.02339 | -74.75264 | 11213 ft | 345 kts | 43° |
| 2026-05-08 03:00 | 40.03946 | -74.72964 | 10937 ft | 341 kts | 43° |
| 2026-05-08 03:00 | 40.05516 | -74.70715 | 10671 ft | 336 kts | 43° |
| 2026-05-08 03:00 | 40.07090 | -74.68455 | 10403 ft | 333 kts | 43° |
| 2026-05-08 03:00 | 40.08627 | -74.66246 | 10121 ft | 330 kts | 43° |
| 2026-05-08 03:01 | 40.10159 | -74.64040 | 9898 ft | 326 kts | 43° |
| 2026-05-08 03:01 | 40.11681 | -74.61851 | 9693 ft | 323 kts | 43° |
| 2026-05-08 03:01 | 40.13188 | -74.59682 | 9460 ft | 322 kts | 43° |
| 2026-05-08 03:01 | 40.14699 | -74.57505 | 9253 ft | 323 kts | 43° |
| 2026-05-08 03:02 | 40.16197 | -74.55347 | 9046 ft | 326 kts | 44° |
| 2026-05-08 03:02 | 40.17719 | -74.53151 | 8837 ft | 324 kts | 44° |
| 2026-05-08 03:02 | 40.19051 | -74.51227 | 8656 ft | 322 kts | 44° |
| 2026-05-08 03:02 | 40.20466 | -74.49192 | 8481 ft | 320 kts | 43° |
| 2026-05-08 03:03 | 40.22040 | -74.47143 | 8280 ft | 318 kts | 40° |
| 2026-05-08 03:03 | 40.23636 | -74.45170 | 8085 ft | 317 kts | 39° |
| 2026-05-08 03:03 | 40.25237 | -74.43186 | 7890 ft | 316 kts | 40° |
| 2026-05-08 03:03 | 40.26825 | -74.41196 | 7691 ft | 315 kts | 40° |
| 2026-05-08 03:04 | 40.28405 | -74.39203 | 7502 ft | 314 kts | 41° |
| 2026-05-08 03:04 | 40.29963 | -74.37237 | 7308 ft | 314 kts | 41° |
| 2026-05-08 03:04 | 40.31541 | -74.35238 | 7122 ft | 314 kts | 41° |
| 2026-05-08 03:04 | 40.33111 | -74.33250 | 6923 ft | 313 kts | 41° |
| 2026-05-08 03:05 | 40.34662 | -74.31285 | 6724 ft | 313 kts | 42° |
| 2026-05-08 03:05 | 40.36227 | -74.29301 | 6526 ft | 312 kts | 42° |
| 2026-05-08 03:05 | 40.37787 | -74.27322 | 6329 ft | 311 kts | 42° |
| 2026-05-08 03:05 | 40.39336 | -74.25354 | 6114 ft | 310 kts | 42° |
| 2026-05-08 03:06 | 40.40881 | -74.23392 | 5913 ft | 308 kts | 42° |
| 2026-05-08 03:06 | 40.42424 | -74.21430 | 5718 ft | 307 kts | 42° |
| 2026-05-08 03:06 | 40.43937 | -74.19504 | 5513 ft | 306 kts | 43° |
| 2026-05-08 03:06 | 40.45466 | -74.17558 | 5332 ft | 305 kts | 43° |
| 2026-05-08 03:07 | 40.46990 | -74.15615 | 5146 ft | 304 kts | 43° |
| 2026-05-08 03:07 | 40.48507 | -74.13681 | 4956 ft | 303 kts | 43° |
| 2026-05-08 03:07 | 40.50026 | -74.11745 | 4763 ft | 303 kts | 43° |
| 2026-05-08 03:07 | 40.51518 | -74.09844 | 4572 ft | 302 kts | 43° |
| 2026-05-08 03:08 | 40.53148 | -74.08120 | 4378 ft | 300 kts | 32° |
| 2026-05-08 03:08 | 40.54915 | -74.06652 | 4189 ft | 299 kts | 31° |
| 2026-05-08 03:08 | 40.56687 | -74.05227 | 4008 ft | 298 kts | 31° |
| 2026-05-08 03:08 | 40.58451 | -74.03785 | 3819 ft | 297 kts | 31° |
| 2026-05-08 03:09 | 40.60193 | -74.02334 | 3633 ft | 294 kts | 32° |
| 2026-05-08 03:09 | 40.61884 | -74.00910 | 3450 ft | 289 kts | 32° |
| 2026-05-08 03:09 | 40.63556 | -73.99493 | 3265 ft | 279 kts | 32° |
| 2026-05-08 03:09 | 40.65161 | -73.98130 | 3087 ft | 265 kts | 32° |
| 2026-05-08 03:10 | 40.66622 | -73.96882 | 2930 ft | 238 kts | 32° |
| 2026-05-08 03:10 | 40.67920 | -73.95760 | 2759 ft | 208 kts | 32° |
| 2026-05-08 03:10 | 40.69060 | -73.94774 | 2615 ft | 183 kts | 33° |
| 2026-05-08 03:10 | 40.70004 | -73.93811 | 2515 ft | 162 kts | 44° |
| 2026-05-08 03:11 | 40.70727 | -73.92796 | 2443 ft | 147 kts | 46° |
| 2026-05-08 03:11 | 40.71410 | -73.91822 | 2235 ft | 147 kts | 46° |
| 2026-05-08 03:11 | 40.72007 | -73.90770 | 2067 ft | 139 kts | 70° |
| 2026-05-08 03:11 | 40.72196 | -73.89512 | 1964 ft | 140 kts | 77° |
| 2026-05-08 03:12 | 40.72400 | -73.88211 | 1733 ft | 148 kts | 76° |
| 2026-05-08 03:12 | 40.72633 | -73.86894 | 1550 ft | 146 kts | 75° |
| 2026-05-08 03:12 | 40.72861 | -73.85579 | 1292 ft | 146 kts | 76° |
| 2026-05-08 03:12 | 40.72999 | -73.84716 | 1102 ft | 144 kts | 75° |
| 2026-05-08 03:13 | 40.73840 | -73.83552 | 932 ft | 133 kts | 24° |
| 2026-05-08 03:13 | 40.74785 | -73.83300 | 727 ft | 148 kts | 354° |
| 2026-05-08 03:13 | 40.75799 | -73.83647 | 556 ft | 153 kts | 343° |
| 2026-05-08 03:13 | 40.76404 | -73.84103 | 425 ft | 152 kts | 315° |
| 2026-05-08 03:14 | 40.77185 | -73.85661 | 59 ft | 153 kts | 302° |
| 2026-05-08 03:14 | 40.77721 | -73.86786 | 14 ft | 120 kts | 302° |
| 2026-05-08 03:14 | 40.77890 | -73.87140 | 13 ft | 37 kts | 302° |
| 2026-05-08 03:14 | 40.77968 | -73.87376 | 13 ft | 18 kts | 249° |
| 2026-05-08 03:15 | 40.77936 | -73.87422 | 14 ft | 0 kts | 213° |
| 2026-05-08 03:16 | 40.77933 | -73.87424 | 14 ft | 6 kts | 213° |
| 2026-05-08 03:16 | 40.77852 | -73.87456 | 14 ft | 9 kts | 130° |
| 2026-05-08 03:16 | 40.77808 | -73.87394 | 13 ft | 10 kts | 167° |
| 2026-05-08 03:17 | 40.77765 | -73.87377 | 15 ft | 21 kts | 133° |
| 2026-05-08 03:17 | 40.77653 | -73.87017 | 13 ft | 50 kts | 128° |
| 2026-05-08 03:17 | 40.77461 | -73.86711 | 14 ft | 38 kts | 146° |
| 2026-05-08 03:17 | 40.77342 | -73.86619 | 19 ft | 13 kts | 168° |
| 2026-05-08 03:18 | 40.77271 | -73.86679 | 19 ft | 13 kts | 223° |
| 2026-05-08 03:18 | 40.77252 | -73.86703 | 19 ft | 3 kts | 226° |
| 2026-05-08 03:18 | 40.77252 | -73.86704 | 19 ft | 3 kts | 226° |
| 2026-05-08 03:18 | 40.77233 | -73.86729 | 19 ft | 18 kts | 225° |
| 2026-05-08 03:19 | 40.77180 | -73.86811 | 19 ft | 9 kts | 258° |
| 2026-05-08 03:19 | 40.77209 | -73.86887 | 19 ft | 10 kts | 321° |
| 2026-05-08 03:19 | 40.77229 | -73.86891 | 19 ft | 0 kts | 33° |
| 2026-05-08 03:19 | 40.77235 | -73.86881 | 19 ft | 3 kts | 52° |
| 2026-05-08 03:20 | 40.77255 | -73.86854 | 19 ft | 0 kts | 42° |
| 2026-05-08 03:20 | 40.77256 | -73.86853 | 19 ft | 0 kts | 42° |
| 2026-05-08 03:20 | 36.12750 | -86.66895 | 19 ft | 3 kts | 330° |